sensor_id;sensor_type;location;lat;lon;timestamp;pressure;altitude;pressure_sealevel;temperature;humidity
54236;BME280;40151;43.606;1.472;2023-01-25T04:28:22;100718.25;;;14.45;47.31
54236;BME280;40151;43.606;1.472;2023-01-25T04:30:49;100707.78;;;14.42;47.37
54236;BME280;40151;43.606;1.472;2023-01-25T04:33:15;100716.47;;;14.47;47.51
54236;BME280;40151;43.606;1.472;2023-01-25T04:35:49;100708.72;;;14.38;47.40
54236;BME280;40151;43.606;1.472;2023-01-25T04:38:41;100715.72;;;14.39;47.46
54236;BME280;40151;43.606;1.472;2023-01-25T04:41:17;100720.09;;;14.37;47.60
54236;BME280;40151;43.606;1.472;2023-01-25T04:43:52;100714.03;;;14.35;47.57
54236;BME280;40151;43.606;1.472;2023-01-25T04:46:50;100726.22;;;14.39;47.47
54236;BME280;40151;43.606;1.472;2023-01-25T04:49:20;100717.47;;;14.37;47.35
54236;BME280;40151;43.606;1.472;2023-01-25T04:51:47;100727.97;;;14.37;47.27
54236;BME280;40151;43.606;1.472;2023-01-25T04:54:12;100726.25;;;14.36;47.50
54236;BME280;40151;43.606;1.472;2023-01-25T04:56:46;100713.16;;;14.33;47.54
54236;BME280;40151;43.606;1.472;2023-01-25T04:59:12;100714.94;;;14.31;47.30
54236;BME280;40151;43.606;1.472;2023-01-25T05:01:40;100709.75;;;14.28;47.22
54236;BME280;40151;43.606;1.472;2023-01-25T05:04:08;100710.56;;;14.30;47.31
54236;BME280;40151;43.606;1.472;2023-01-25T05:06:37;100707.13;;;14.28;47.12
54236;BME280;40151;43.606;1.472;2023-01-25T05:09:05;100708.84;;;14.27;47.26
54236;BME280;40151;43.606;1.472;2023-01-25T05:11:30;100707.06;;;14.29;47.41
54236;BME280;40151;43.606;1.472;2023-01-25T05:13:56;100695.75;;;14.24;47.43
54236;BME280;40151;43.606;1.472;2023-01-25T05:16:22;100696.63;;;14.25;47.28
54236;BME280;40151;43.606;1.472;2023-01-25T05:18:48;100703.63;;;14.26;47.27
54236;BME280;40151;43.606;1.472;2023-01-25T05:21:13;100698.38;;;14.26;47.34
54236;BME280;40151;43.606;1.472;2023-01-25T05:23:57;100693.13;;;14.26;47.49
54236;BME280;40151;43.606;1.472;2023-01-25T05:26:24;100695.75;;;14.26;47.35
54236;BME280;40151;43.606;1.472;2023-01-25T05:29:09;100702.78;;;14.23;47.16
54236;BME280;40151;43.606;1.472;2023-01-25T05:31:34;100708.03;;;14.23;47.38
54236;BME280;40151;43.606;1.472;2023-01-25T05:34:00;100702.84;;;14.19;47.25
54236;BME280;40151;43.606;1.472;2023-01-25T05:36:25;100698.53;;;14.13;47.24
54236;BME280;40151;43.606;1.472;2023-01-25T05:38:52;100718.53;;;14.22;47.37
54236;BME280;40151;43.606;1.472;2023-01-25T05:41:18;100694.09;;;14.17;47.32
54236;BME280;40151;43.606;1.472;2023-01-25T05:43:47;100701.97;;;14.17;47.07
54236;BME280;40151;43.606;1.472;2023-01-25T05:46:12;100704.59;;;14.18;47.18
54236;BME280;40151;43.606;1.472;2023-01-25T05:48:38;100701.13;;;14.16;47.60
54236;BME280;40151;43.606;1.472;2023-01-25T05:51:04;100709.91;;;14.14;47.36
54236;BME280;40151;43.606;1.472;2023-01-25T05:53:29;100714.25;;;14.16;47.12
54236;BME280;40151;43.606;1.472;2023-01-25T05:56:03;100710.81;;;14.11;47.33
54236;BME280;40151;43.606;1.472;2023-01-25T05:58:29;100709.03;;;14.13;47.13
54236;BME280;40151;43.606;1.472;2023-01-25T06:00:54;100712.53;;;14.15;47.24
54236;BME280;40151;43.606;1.472;2023-01-25T06:03:20;100716.06;;;14.11;47.18
54236;BME280;40151;43.606;1.472;2023-01-25T06:05:45;100718.63;;;14.14;47.22
54236;BME280;40151;43.606;1.472;2023-01-25T06:08:11;100725.66;;;14.15;47.23
54236;BME280;40151;43.606;1.472;2023-01-25T06:10:36;100721.31;;;14.11;47.05
54236;BME280;40151;43.606;1.472;2023-01-25T06:13:02;100729.19;;;14.13;47.22
54236;BME280;40151;43.606;1.472;2023-01-25T06:15:27;100723.03;;;14.12;47.10
54236;BME280;40151;43.606;1.472;2023-01-25T06:17:56;100718.69;;;14.11;47.13
54236;BME280;40151;43.606;1.472;2023-01-25T06:20:21;100719.59;;;14.10;47.12
54236;BME280;40151;43.606;1.472;2023-01-25T06:22:50;100727.41;;;14.12;47.29
54236;BME280;40151;43.606;1.472;2023-01-25T06:25:16;100725.72;;;14.07;47.22
54236;BME280;40151;43.606;1.472;2023-01-25T06:27:42;100719.66;;;14.02;47.06
54236;BME280;40151;43.606;1.472;2023-01-25T06:30:08;100721.38;;;14.05;47.24
54236;BME280;40151;43.606;1.472;2023-01-25T06:32:34;100721.34;;;14.08;46.99
54236;BME280;40151;43.606;1.472;2023-01-25T06:34:59;100719.59;;;14.10;47.09
54236;BME280;40151;43.606;1.472;2023-01-25T06:37:25;100724.84;;;14.07;47.36
54236;BME280;40151;43.606;1.472;2023-01-25T06:39:50;100727.50;;;14.05;47.38
54236;BME280;40151;43.606;1.472;2023-01-25T06:42:16;100728.38;;;14.03;47.09
54236;BME280;40151;43.606;1.472;2023-01-25T06:44:41;100731.91;;;14.03;47.03
54236;BME280;40151;43.606;1.472;2023-01-25T06:47:10;100733.69;;;14.00;47.24
54236;BME280;40151;43.606;1.472;2023-01-25T06:49:37;100739.75;;;14.05;47.14
54236;BME280;40151;43.606;1.472;2023-01-25T06:52:02;100732.78;;;14.04;47.13
54236;BME280;40151;43.606;1.472;2023-01-25T06:54:28;100730.16;;;14.02;46.93
54236;BME280;40151;43.606;1.472;2023-01-25T06:56:53;100737.13;;;14.05;47.12
54236;BME280;40151;43.606;1.472;2023-01-25T06:59:19;100734.53;;;14.03;47.32
54236;BME280;40151;43.606;1.472;2023-01-25T07:01:44;100737.16;;;14.02;47.11
54236;BME280;40151;43.606;1.472;2023-01-25T07:04:11;100738.88;;;14.03;47.18
54236;BME280;40151;43.606;1.472;2023-01-25T07:06:37;100745.00;;;14.05;47.04
54236;BME280;40151;43.606;1.472;2023-01-25T07:09:08;100731.97;;;13.99;47.11
54236;BME280;40151;43.606;1.472;2023-01-25T07:11:34;100737.16;;;14.02;47.09
54236;BME280;40151;43.606;1.472;2023-01-25T07:13:59;100726.72;;;13.99;46.97
54236;BME280;40151;43.606;1.472;2023-01-25T07:16:25;100731.91;;;14.02;47.13
54236;BME280;40151;43.606;1.472;2023-01-25T07:18:51;100733.69;;;14.00;47.12
54236;BME280;40151;43.606;1.472;2023-01-25T07:21:18;100735.44;;;14.01;47.08
54236;BME280;40151;43.606;1.472;2023-01-25T07:23:45;100740.72;;;13.98;46.90
54236;BME280;40151;43.606;1.472;2023-01-25T07:26:16;100738.94;;;14.00;46.98
54236;BME280;40151;43.606;1.472;2023-01-25T07:28:42;100731.97;;;13.95;47.06
54236;BME280;40151;43.606;1.472;2023-01-25T07:31:07;100737.22;;;13.95;46.90
54236;BME280;40151;43.606;1.472;2023-01-25T07:33:33;100744.22;;;13.96;46.79
54236;BME280;40151;43.606;1.472;2023-01-25T07:36:03;100733.72;;;13.96;46.91
54236;BME280;40151;43.606;1.472;2023-01-25T07:38:29;100751.25;;;13.94;46.83
54236;BME280;40151;43.606;1.472;2023-01-25T07:40:55;100759.13;;;13.93;47.07
54236;BME280;40151;43.606;1.472;2023-01-25T07:43:21;100755.66;;;13.92;46.91
54236;BME280;40151;43.606;1.472;2023-01-25T07:45:46;100752.19;;;13.89;47.08
54236;BME280;40151;43.606;1.472;2023-01-25T07:48:16;100754.78;;;13.90;47.07
54236;BME280;40151;43.606;1.472;2023-01-25T07:50:42;100758.28;;;13.92;46.85
54236;BME280;40151;43.606;1.472;2023-01-25T07:53:11;100759.13;;;13.93;46.95
54236;BME280;40151;43.606;1.472;2023-01-25T07:55:37;100762.69;;;13.89;46.71
54236;BME280;40151;43.606;1.472;2023-01-25T07:58:03;100761.81;;;13.87;46.95
54236;BME280;40151;43.606;1.472;2023-01-25T08:00:28;100767.94;;;13.86;46.88
54236;BME280;40151;43.606;1.472;2023-01-25T08:02:54;100770.59;;;13.84;47.06
54236;BME280;40151;43.606;1.472;2023-01-25T08:05:19;100760.13;;;13.81;46.99
54236;BME280;40151;43.606;1.472;2023-01-25T08:07:45;100772.31;;;13.88;46.83
54236;BME280;40151;43.606;1.472;2023-01-25T08:10:12;100774.94;;;13.87;46.82
54236;BME280;40151;43.606;1.472;2023-01-25T08:12:38;100781.06;;;13.87;46.83
54236;BME280;40151;43.606;1.472;2023-01-25T08:15:03;100784.56;;;13.86;46.80
54236;BME280;40151;43.606;1.472;2023-01-25T08:17:29;100782.84;;;13.83;46.90
54236;BME280;40151;43.606;1.472;2023-01-25T08:19:59;100788.94;;;13.87;46.79
54236;BME280;40151;43.606;1.472;2023-01-25T08:22:26;100785.44;;;13.87;46.89
54236;BME280;40151;43.606;1.472;2023-01-25T08:24:52;100784.56;;;13.86;46.66
54236;BME280;40151;43.606;1.472;2023-01-25T08:27:18;100788.94;;;13.84;46.63
54236;BME280;40151;43.606;1.472;2023-01-25T08:29:43;100783.72;;;13.82;46.86
54236;BME280;40151;43.606;1.472;2023-01-25T08:32:09;100785.47;;;13.82;46.80
54236;BME280;40151;43.606;1.472;2023-01-25T08:34:34;100793.34;;;13.82;46.63
54236;BME280;40151;43.606;1.472;2023-01-25T08:37:00;100785.50;;;13.80;46.87
54236;BME280;40151;43.606;1.472;2023-01-25T08:39:25;100786.38;;;13.81;46.69
54236;BME280;40151;43.606;1.472;2023-01-25T08:41:51;100789.84;;;13.81;46.59
54236;BME280;40151;43.606;1.472;2023-01-25T08:44:17;100798.59;;;13.82;46.58
54236;BME280;40151;43.606;1.472;2023-01-25T08:46:46;100799.44;;;13.84;46.74
54236;BME280;40151;43.606;1.472;2023-01-25T08:49:12;100797.72;;;13.83;46.65
54236;BME280;40151;43.606;1.472;2023-01-25T08:51:38;100792.47;;;13.81;46.67
54236;BME280;40151;43.606;1.472;2023-01-25T08:54:07;100795.91;;;13.87;46.69
54236;BME280;40151;43.606;1.472;2023-01-25T08:56:35;100799.44;;;13.84;46.74
54236;BME280;40151;43.606;1.472;2023-01-25T08:59:01;100798.63;;;13.79;46.57
54236;BME280;40151;43.606;1.472;2023-01-25T09:01:26;100802.97;;;13.83;46.62
54236;BME280;40151;43.606;1.472;2023-01-25T09:03:52;100806.47;;;13.80;46.66
54236;BME280;40151;43.606;1.472;2023-01-25T09:06:18;100810.88;;;13.80;46.68
54236;BME280;40151;43.606;1.472;2023-01-25T09:08:44;100810.84;;;13.83;46.91
54236;BME280;40151;43.606;1.472;2023-01-25T09:11:14;100809.16;;;13.76;46.76
54236;BME280;40151;43.606;1.472;2023-01-25T09:13:40;100816.13;;;13.80;46.80
54236;BME280;40151;43.606;1.472;2023-01-25T09:16:10;100810.00;;;13.81;46.65
54236;BME280;40151;43.606;1.472;2023-01-25T09:18:37;100812.66;;;13.75;46.74
54236;BME280;40151;43.606;1.472;2023-01-25T09:21:07;100810.88;;;13.77;46.51
54236;BME280;40151;43.606;1.472;2023-01-25T09:23:33;100821.38;;;13.77;46.59
54236;BME280;40151;43.606;1.472;2023-01-25T09:25:59;100810.88;;;13.77;46.66
54236;BME280;40151;43.606;1.472;2023-01-25T09:28:28;100819.66;;;13.76;46.51
54236;BME280;40151;43.606;1.472;2023-01-25T09:30:59;100809.16;;;13.76;46.59
54236;BME280;40151;43.606;1.472;2023-01-25T09:33:33;100819.66;;;13.77;46.68
54236;BME280;40151;43.606;1.472;2023-01-25T09:36:00;100818.78;;;13.74;46.57
54236;BME280;40151;43.606;1.472;2023-01-25T09:38:26;100820.53;;;13.73;46.58
54236;BME280;40151;43.606;1.472;2023-01-25T09:46:21;100813.53;;;13.75;46.63
54236;BME280;40151;43.606;1.472;2023-01-25T09:54:56;100796.03;;;13.76;46.52
54236;BME280;40151;43.606;1.472;2023-01-25T09:57:35;100792.59;;;13.69;46.66
54236;BME280;40151;43.606;1.472;2023-01-25T10:00:07;100795.19;;;13.71;46.64
54236;BME280;40151;43.606;1.472;2023-01-25T10:03:44;100786.44;;;13.72;46.61
54236;BME280;40151;43.606;1.472;2023-01-25T10:05:44;100784.72;;;13.71;46.67
54236;BME280;40151;43.606;1.472;2023-01-25T10:08:22;100786.50;;;13.65;46.68
54236;BME280;40151;43.606;1.472;2023-01-25T10:10:54;100776.91;;;13.66;46.68
54236;BME280;40151;43.606;1.472;2023-01-25T10:13:23;100778.63;;;13.68;46.59
54236;BME280;40151;43.606;1.472;2023-01-25T10:15:55;100776.84;;;13.69;46.45
54236;BME280;40151;43.606;1.472;2023-01-25T10:21:19;100778.63;;;13.65;46.80
54236;BME280;40151;43.606;1.472;2023-01-25T10:26:33;100773.38;;;13.67;46.52
54236;BME280;40151;43.606;1.472;2023-01-25T10:29:03;100773.38;;;13.67;46.58
54236;BME280;40151;43.606;1.472;2023-01-25T10:31:54;100772.50;;;13.66;46.44
54236;BME280;40151;43.606;1.472;2023-01-25T10:34:30;100770.75;;;13.65;46.58
54236;BME280;40151;43.606;1.472;2023-01-25T10:37:03;100767.25;;;13.66;46.44
54236;BME280;40151;43.606;1.472;2023-01-25T10:39:38;100758.53;;;13.64;46.44
54236;BME280;40151;43.606;1.472;2023-01-25T10:42:11;100760.28;;;13.64;46.54
54236;BME280;40151;43.606;1.472;2023-01-25T10:44:38;100761.16;;;13.64;46.49
54236;BME280;40151;43.606;1.472;2023-01-25T10:47:23;100758.53;;;13.64;46.52
54236;BME280;40151;43.606;1.472;2023-01-25T10:49:57;100759.38;;;13.66;46.53
54236;BME280;40151;43.606;1.472;2023-01-25T10:52:24;100752.47;;;13.61;46.58
54236;BME280;40151;43.606;1.472;2023-01-25T10:57:31;100744.59;;;13.62;46.68
54236;BME280;40151;43.606;1.472;2023-01-25T11:00:01;100734.94;;;13.61;46.54
54236;BME280;40151;43.606;1.472;2023-01-25T11:02:44;100734.09;;;13.59;46.54
54236;BME280;40151;43.606;1.472;2023-01-25T11:05:30;100728.84;;;13.59;46.72
54236;BME280;40151;43.606;1.472;2023-01-25T11:07:56;100725.34;;;13.60;46.61
54236;BME280;40151;43.606;1.472;2023-01-25T11:10:34;100730.59;;;13.60;46.48
54236;BME280;40151;43.606;1.472;2023-01-25T11:15:42;100723.63;;;13.59;46.42
54236;BME280;40151;43.606;1.472;2023-01-25T11:18:28;100717.53;;;13.57;46.50
54236;BME280;40151;43.606;1.472;2023-01-25T11:23:32;100712.28;;;13.57;46.42
54236;BME280;40151;43.606;1.472;2023-01-25T11:28:36;100700.91;;;13.56;46.49
54236;BME280;40151;43.606;1.472;2023-01-25T11:31:02;100698.28;;;13.56;46.40
54236;BME280;40151;43.606;1.472;2023-01-25T11:33:27;100702.69;;;13.54;46.28
54236;BME280;40151;43.606;1.472;2023-01-25T11:38:47;100682.53;;;13.56;46.25
54236;BME280;40151;43.606;1.472;2023-01-25T11:45:01;100693.03;;;13.55;46.20
54236;BME280;40151;43.606;1.472;2023-01-25T11:47:36;100690.41;;;13.55;46.22
54236;BME280;40151;43.606;1.472;2023-01-25T11:55:25;100674.75;;;13.49;46.19
54236;BME280;40151;43.606;1.472;2023-01-25T12:00:40;100671.28;;;13.48;46.21
54236;BME280;40151;43.606;1.472;2023-01-25T12:03:15;100655.50;;;13.50;46.20
54236;BME280;40151;43.606;1.472;2023-01-25T12:08:41;100657.28;;;13.51;46.19
54236;BME280;40151;43.606;1.472;2023-01-25T12:22:35;100636.28;;;13.49;46.21
54236;BME280;40151;43.606;1.472;2023-01-25T12:25:20;100628.44;;;13.48;46.16
54236;BME280;40151;43.606;1.472;2023-01-25T12:27:56;100622.31;;;13.49;46.12
54236;BME280;40151;43.606;1.472;2023-01-25T12:30:38;100613.59;;;13.48;46.23
54236;BME280;40151;43.606;1.472;2023-01-25T12:36:10;100612.69;;;13.49;46.22
54236;BME280;40151;43.606;1.472;2023-01-25T12:39:07;100608.34;;;13.47;46.19
54236;BME280;40151;43.606;1.472;2023-01-25T12:41:37;100606.56;;;13.47;46.21
54236;BME280;40151;43.606;1.472;2023-01-25T12:44:26;100601.34;;;13.46;46.13
54236;BME280;40151;43.606;1.472;2023-01-25T12:47:13;100593.47;;;13.47;46.31
54236;BME280;40151;43.606;1.472;2023-01-25T12:50:03;100581.25;;;13.48;46.12
54236;BME280;40151;43.606;1.472;2023-01-25T12:52:35;100578.63;;;13.45;46.17
54236;BME280;40151;43.606;1.472;2023-01-25T12:55:06;100576.91;;;13.42;46.20
54236;BME280;40151;43.606;1.472;2023-01-25T13:11:22;100554.22;;;13.39;46.24
54236;BME280;40151;43.606;1.472;2023-01-25T13:13:49;100550.69;;;13.40;46.21
54236;BME280;40151;43.606;1.472;2023-01-25T13:18:54;100543.72;;;13.39;46.14
54236;BME280;40151;43.606;1.472;2023-01-25T13:21:40;100534.09;;;13.41;46.15
54236;BME280;40151;43.606;1.472;2023-01-25T13:31:57;100523.66;;;13.35;46.09
54236;BME280;40151;43.606;1.472;2023-01-25T13:44:48;100520.16;;;13.35;46.14
54236;BME280;40151;43.606;1.472;2023-01-25T13:47:17;100523.66;;;13.35;46.01
54236;BME280;40151;43.606;1.472;2023-01-25T13:52:19;100525.41;;;13.35;46.10
54236;BME280;40151;43.606;1.472;2023-01-25T13:54:46;100521.88;;;13.37;46.09
54236;BME280;40151;43.606;1.472;2023-01-25T13:57:14;100521.06;;;13.32;46.14
54236;BME280;40151;43.606;1.472;2023-01-25T13:59:43;100527.19;;;13.31;46.07
54236;BME280;40151;43.606;1.472;2023-01-25T14:02:27;100524.56;;;13.34;46.07
54236;BME280;40151;43.606;1.472;2023-01-25T14:04:53;100512.34;;;13.33;45.91
54236;BME280;40151;43.606;1.472;2023-01-25T14:07:21;100514.97;;;13.32;46.19
54236;BME280;40151;43.606;1.472;2023-01-25T14:09:49;100512.34;;;13.33;46.17
54236;BME280;40151;43.606;1.472;2023-01-25T14:12:36;100512.38;;;13.30;46.16
54236;BME280;40151;43.606;1.472;2023-01-25T14:15:19;100514.09;;;13.31;46.11
54236;BME280;40151;43.606;1.472;2023-01-25T14:17:45;100509.81;;;13.25;46.12
54236;BME280;40151;43.606;1.472;2023-01-25T14:20:20;100518.50;;;13.29;46.19
54236;BME280;40151;43.606;1.472;2023-01-25T14:22:50;100515.91;;;13.26;46.11
54236;BME280;40151;43.606;1.472;2023-01-25T14:25:20;100522.00;;;13.28;46.14
54236;BME280;40151;43.606;1.472;2023-01-25T14:30:32;100503.66;;;13.28;46.11
54236;BME280;40151;43.606;1.472;2023-01-25T14:33:02;100508.91;;;13.28;46.03
54236;BME280;40151;43.606;1.472;2023-01-25T14:35:41;100498.41;;;13.28;46.05
54236;BME280;40151;43.606;1.472;2023-01-25T14:38:34;100501.03;;;13.29;46.10
54236;BME280;40151;43.606;1.472;2023-01-25T14:41:16;100507.19;;;13.24;45.99
54236;BME280;40151;43.606;1.472;2023-01-25T14:43:46;100504.50;;;13.28;45.95
54236;BME280;40151;43.606;1.472;2023-01-25T14:46:25;100512.41;;;13.27;45.95
54236;BME280;40151;43.606;1.472;2023-01-25T14:48:51;100508.94;;;13.25;46.00
54236;BME280;40151;43.606;1.472;2023-01-25T14:51:30;100513.28;;;13.26;46.08
54236;BME280;40151;43.606;1.472;2023-01-25T14:54:02;100515.91;;;13.26;45.94
54236;BME280;40151;43.606;1.472;2023-01-25T14:56:30;100510.66;;;13.26;46.04
54236;BME280;40151;43.606;1.472;2023-01-25T14:58:57;100508.06;;;13.24;46.00
54236;BME280;40151;43.606;1.472;2023-01-25T15:01:28;100506.31;;;13.23;45.95
54236;BME280;40151;43.606;1.472;2023-01-25T15:03:55;100500.22;;;13.23;46.00
54236;BME280;40151;43.606;1.472;2023-01-25T15:06:21;100499.34;;;13.24;46.06
54236;BME280;40151;43.606;1.472;2023-01-25T15:08:46;100494.97;;;13.24;45.97
54236;BME280;40151;43.606;1.472;2023-01-25T15:11:32;100500.16;;;13.26;45.99
54236;BME280;40151;43.606;1.472;2023-01-25T15:14:16;100495.88;;;13.22;45.97
54236;BME280;40151;43.606;1.472;2023-01-25T15:16:43;100494.97;;;13.23;46.07
54236;BME280;40151;43.606;1.472;2023-01-25T15:19:26;100503.75;;;13.19;46.05
54236;BME280;40151;43.606;1.472;2023-01-25T15:21:53;100507.28;;;13.18;46.22
54236;BME280;40151;43.606;1.472;2023-01-25T15:24:19;100517.75;;;13.18;46.03
54236;BME280;40151;43.606;1.472;2023-01-25T15:26:49;100522.16;;;13.15;46.04
54236;BME280;40151;43.606;1.472;2023-01-25T15:29:18;100517.75;;;13.18;45.96
54236;BME280;40151;43.606;1.472;2023-01-25T15:31:49;100516.91;;;13.15;46.01
54236;BME280;40151;43.606;1.472;2023-01-25T15:34:26;100517.75;;;13.18;46.05
54236;BME280;40151;43.606;1.472;2023-01-25T15:36:54;100523.00;;;13.14;45.94
54236;BME280;40151;43.606;1.472;2023-01-25T15:39:20;100517.78;;;13.14;46.09
54236;BME280;40151;43.606;1.472;2023-01-25T15:41:46;100523.00;;;13.14;46.12
54236;BME280;40151;43.606;1.472;2023-01-25T15:44:12;100516.03;;;13.13;46.17
54236;BME280;40151;43.606;1.472;2023-01-25T15:46:40;100500.31;;;13.13;46.13
54236;BME280;40151;43.606;1.472;2023-01-25T15:49:11;100495.97;;;13.14;46.14
54236;BME280;40151;43.606;1.472;2023-01-25T15:51:37;100495.97;;;13.14;46.09
54236;BME280;40151;43.606;1.472;2023-01-25T15:54:03;100494.22;;;13.13;46.00
54236;BME280;40151;43.606;1.472;2023-01-25T15:56:31;100496.84;;;13.11;46.06
54236;BME280;40151;43.606;1.472;2023-01-25T15:58:59;100503.84;;;13.12;46.04
54236;BME280;40151;43.606;1.472;2023-01-25T16:01:27;100500.38;;;13.12;45.98
54236;BME280;40151;43.606;1.472;2023-01-25T16:03:54;100498.59;;;13.12;46.04
54236;BME280;40151;43.606;1.472;2023-01-25T16:06:43;100496.88;;;13.08;45.95
54236;BME280;40151;43.606;1.472;2023-01-25T16:09:21;100498.59;;;13.11;46.09
54236;BME280;40151;43.606;1.472;2023-01-25T16:11:49;100505.63;;;13.10;46.03
54236;BME280;40151;43.606;1.472;2023-01-25T16:14:15;100505.63;;;13.10;46.10
54236;BME280;40151;43.606;1.472;2023-01-25T16:16:48;100503.84;;;13.11;46.16
54236;BME280;40151;43.606;1.472;2023-01-25T16:19:17;100503.88;;;13.09;46.13
54236;BME280;40151;43.606;1.472;2023-01-25T16:21:42;100497.75;;;13.10;46.10
54236;BME280;40151;43.606;1.472;2023-01-25T16:24:09;100505.63;;;13.10;46.12
54236;BME280;40151;43.606;1.472;2023-01-25T16:26:37;100502.13;;;13.10;45.98
54236;BME280;40151;43.606;1.472;2023-01-25T16:29:03;100496.88;;;13.08;46.08
54236;BME280;40151;43.606;1.472;2023-01-25T16:31:29;100499.50;;;13.10;46.16
54236;BME280;40151;43.606;1.472;2023-01-25T16:33:54;100496.88;;;13.08;46.02
54236;BME280;40151;43.606;1.472;2023-01-25T16:36:22;100502.16;;;13.05;46.15
54236;BME280;40151;43.606;1.472;2023-01-25T16:38:48;100491.69;;;13.05;46.19
54236;BME280;40151;43.606;1.472;2023-01-25T16:41:14;100500.38;;;13.07;46.24
54236;BME280;40151;43.606;1.472;2023-01-25T16:43:44;100496.03;;;13.06;46.10
54236;BME280;40151;43.606;1.472;2023-01-25T16:46:21;100497.78;;;13.06;45.96
54236;BME280;40151;43.606;1.472;2023-01-25T16:48:49;100496.03;;;13.08;46.11
54236;BME280;40151;43.606;1.472;2023-01-25T16:51:20;100493.41;;;13.06;46.20
54236;BME280;40151;43.606;1.472;2023-01-25T16:53:47;100495.16;;;13.07;46.09
54236;BME280;40151;43.606;1.472;2023-01-25T16:56:21;100496.06;;;13.05;46.25
54236;BME280;40151;43.606;1.472;2023-01-25T16:58:48;100493.47;;;13.03;46.22
54236;BME280;40151;43.606;1.472;2023-01-25T17:01:15;100492.53;;;13.06;46.24
54236;BME280;40151;43.606;1.472;2023-01-25T17:03:42;100491.69;;;13.03;46.21
54236;BME280;40151;43.606;1.472;2023-01-25T17:06:20;100495.19;;;13.04;46.11
54236;BME280;40151;43.606;1.472;2023-01-25T17:08:47;100489.97;;;13.01;46.20
54236;BME280;40151;43.606;1.472;2023-01-25T17:11:13;100489.09;;;13.02;46.14
54236;BME280;40151;43.606;1.472;2023-01-25T17:13:39;100488.22;;;13.03;46.34
54236;BME280;40151;43.606;1.472;2023-01-25T17:16:05;100491.72;;;13.02;46.27
54236;BME280;40151;43.606;1.472;2023-01-25T17:18:30;100490.88;;;13.00;46.08
54236;BME280;40151;43.606;1.472;2023-01-25T17:23:22;100489.97;;;13.01;46.07
54236;BME280;40151;43.606;1.472;2023-01-25T17:25:48;100487.41;;;12.96;46.21
54236;BME280;40151;43.606;1.472;2023-01-25T17:28:13;100489.97;;;13.02;46.17
54236;BME280;40151;43.606;1.472;2023-01-25T17:30:39;100494.38;;;13.00;46.18
54236;BME280;40151;43.606;1.472;2023-01-25T17:33:05;100499.63;;;12.97;46.33
54236;BME280;40151;43.606;1.472;2023-01-25T17:35:34;100494.38;;;12.97;46.23
54236;BME280;40151;43.606;1.472;2023-01-25T17:37:59;100503.13;;;12.98;46.26
54236;BME280;40151;43.606;1.472;2023-01-25T17:40:25;100495.28;;;12.98;46.13
54236;BME280;40151;43.606;1.472;2023-01-25T17:42:51;100491.81;;;12.94;46.36
54236;BME280;40151;43.606;1.472;2023-01-25T17:45:16;100498.75;;;12.97;46.37
54236;BME280;40151;43.606;1.472;2023-01-25T17:47:42;100493.50;;;12.97;46.33
54236;BME280;40151;43.606;1.472;2023-01-25T17:50:08;100491.78;;;12.96;46.23
54236;BME280;40151;43.606;1.472;2023-01-25T17:52:33;100498.75;;;12.97;46.24
54236;BME280;40151;43.606;1.472;2023-01-25T17:54:59;100494.41;;;12.96;46.24
54236;BME280;40151;43.606;1.472;2023-01-25T17:57:25;100498.75;;;12.98;46.33
54236;BME280;40151;43.606;1.472;2023-01-25T17:59:52;100493.50;;;12.97;46.31
54236;BME280;40151;43.606;1.472;2023-01-25T18:02:18;100495.28;;;12.95;46.34
54236;BME280;40151;43.606;1.472;2023-01-25T18:04:43;100491.81;;;12.93;46.57
54236;BME280;40151;43.606;1.472;2023-01-25T18:07:09;100486.53;;;12.96;46.23
54236;BME280;40151;43.606;1.472;2023-01-25T18:09:34;100476.94;;;12.95;46.32
54236;BME280;40151;43.606;1.472;2023-01-25T18:12:00;100481.34;;;12.93;46.35
54236;BME280;40151;43.606;1.472;2023-01-25T18:14:25;100472.59;;;12.94;46.46
54236;BME280;40151;43.606;1.472;2023-01-25T18:16:52;100467.34;;;12.94;46.36
54236;BME280;40151;43.606;1.472;2023-01-25T18:19:18;100469.13;;;12.92;46.45
54236;BME280;40151;43.606;1.472;2023-01-25T18:21:43;100463.84;;;12.95;46.39
54236;BME280;40151;43.606;1.472;2023-01-25T18:24:29;100465.56;;;12.96;46.39
54236;BME280;40151;43.606;1.472;2023-01-25T18:27:05;100469.13;;;12.92;46.44
54236;BME280;40151;43.606;1.472;2023-01-25T18:32:09;100463.00;;;12.93;46.36
54236;BME280;40151;43.606;1.472;2023-01-25T18:34:34;100458.66;;;12.92;46.43
54236;BME280;40151;43.606;1.472;2023-01-25T18:37:00;100455.16;;;12.93;46.57
54236;BME280;40151;43.606;1.472;2023-01-25T18:39:26;100462.13;;;12.94;46.41
54236;BME280;40151;43.606;1.472;2023-01-25T18:41:52;100454.28;;;12.92;46.38
54236;BME280;40151;43.606;1.472;2023-01-25T18:44:18;100456.00;;;12.93;46.49
54236;BME280;40151;43.606;1.472;2023-01-25T18:46:44;100449.94;;;12.88;46.47
54236;BME280;40151;43.606;1.472;2023-01-25T18:49:11;100446.41;;;12.91;46.46
54236;BME280;40151;43.606;1.472;2023-01-25T18:51:36;100456.06;;;12.90;46.51
54236;BME280;40151;43.606;1.472;2023-01-25T18:54:02;100452.53;;;12.89;46.51
54236;BME280;40151;43.606;1.472;2023-01-25T18:56:28;100452.53;;;12.89;46.42
54236;BME280;40151;43.606;1.472;2023-01-25T18:58:56;100451.66;;;12.91;46.49
54236;BME280;40151;43.606;1.472;2023-01-25T19:01:23;100443.84;;;12.86;46.71
54236;BME280;40151;43.606;1.472;2023-01-25T19:03:50;100443.84;;;12.89;46.46
54236;BME280;40151;43.606;1.472;2023-01-25T19:06:17;100439.50;;;12.86;46.56
54236;BME280;40151;43.606;1.472;2023-01-25T19:08:43;100441.22;;;12.87;46.59
54236;BME280;40151;43.606;1.472;2023-01-25T19:11:15;100441.22;;;12.87;46.48
54236;BME280;40151;43.606;1.472;2023-01-25T19:13:42;100446.41;;;12.91;46.51